Estación Meteorológica Peña el Pijo (Robertgarden) [ 11/19/17 19:00:48 CET ]

Fecha Hora Presion(HPa) Temp (°C) Humedad % Rocio (°C) Viento ( m/s) Direccion Lluvia 1Hora(mm) Lluvia 24H(mm) LLuvia Total(mm)
2017-Apr-15 01:01:46 1011.800 10.9 57 2.7         1357.67
2017-Apr-15 02:01:40 1011.800 10.8 59 3.1         1357.67
2017-Apr-15 03:01:42 1011.400 10.2 62 3.2         1357.67
2017-Apr-15 04:01:43 1011.100 9.3 66 3.2         1357.67
2017-Apr-15 05:04:08 1010.900 9.6 68 4.0         1357.67
2017-Apr-15 06:01:26 1010.900 8.9 70 3.7         1357.67
2017-Apr-15 07:01:38 1011.100 8.1 72 3.4         1357.67
2017-Apr-15 08:01:35 1011.400 7.8 73 3.3         1357.67
2017-Apr-15 09:01:37 1011.600 11.4 70 6.2         1357.67
2017-Apr-15 10:02:00 1011.600 15.1 62 7.9         1357.67
2017-Apr-15 11:01:34 1011.500 21.8 43 8.6         1357.67
2017-Apr-15 12:01:52 1011.400 25.2 31 6.9         1357.67
2017-Apr-15 13:01:56 1010.900 27.2 29 7.6         1357.67
2017-Apr-15 14:01:35 1010.600 26.4 28 6.3         1357.67
2017-Apr-15 15:01:47 1010.200 26.6 27 5.9         1357.67
2017-Apr-15 16:02:07 1009.700 27.3 27 6.5         1357.67
2017-Apr-15 17:02:05 1009.500 27.4 24 4.8         1357.67
2017-Apr-15 18:01:54 1009.400 26.8 20 2.0         1357.67
2017-Apr-15 19:01:42 1009.500 24.8 21 0.9         1357.67
2017-Apr-15 20:01:41 1009.700 21.8 26 1.2         1357.67
2017-Apr-15 21:01:48 1010.400 19.4 31 1.8         1357.67
2017-Apr-15 22:01:35 1011.400 15.8 39 1.8         1357.67
2017-Apr-15 23:01:38 1012.000 13.8 46 2.3         1357.67

Temperatura Máxima:27°    Temperatura Mínima:
Presión Máxima:1012.000 Hpa    Presión Mínima:1009.400 Hpa


Volver